CDT,Max TemperatureF,Mean TemperatureF,Min TemperatureF,Max Dew PointF,MeanDew PointF,Min DewpointF,Max Humidity, Mean Humidity, Min Humidity, Max Sea Level PressureIn, Mean Sea Level PressureIn, Min Sea Level PressureIn, Max VisibilityMiles, Mean VisibilityMiles, Min VisibilityMiles, Max Wind SpeedMPH, Mean Wind SpeedMPH, Max Gust SpeedMPH,PrecipitationIn, CloudCover, Events, WindDirDegrees
2012-10-1,71,63,53,46,36,29,60,39,23,30.00,29.96,29.86,10,10,10,18,12,30,0.00,1,,326
2012-10-2,75,56,37,35,28,23,68,38,15,30.00,29.91,29.81,10,10,6,13,6,20,0.00,0,,201
2012-10-3,80,60,41,33,29,24,65,36,14,29.89,29.83,29.73,10,10,10,23,9,30,0.00,0,,149
2012-10-4,57,50,41,40,33,29,76,61,42,30.25,30.05,29.75,10,10,8,32,23,45,0.00,7,,293
2012-10-5,48,39,32,30,24,23,75,55,39,30.26,30.24,30.20,10,10,10,21,15,32,0.00,4,,306
2012-10-6,45,37,30,28,25,20,76,64,38,30.35,30.30,30.22,10,10,10,14,12,25,0.00,6,,317
2012-10-7,57,40,23,23,18,16,78,48,20,30.28,30.08,29.87,10,10,10,20,8,25,0.00,0,,226
2012-10-8,68,52,37,39,29,18,61,43,28,29.85,29.72,29.60,10,10,10,23,13,32,0.00,6,,233
2012-10-9,51,44,37,37,29,22,80,55,41,30.06,29.89,29.74,10,10,8,26,12,34,0.01,7,Rain,292
2012-10-10,57,44,30,29,24,19,82,48,24,30.15,30.04,29.81,10,10,10,20,9,24,0.00,2,,248
2012-10-11,55,44,32,33,26,16,73,48,29,30.44,30.14,29.79,10,10,10,20,13,30,0.00,1,,325
2012-10-12,55,37,19,22,16,13,78,42,19,30.46,30.28,29.96,10,10,10,24,8,31,0.00,2,,150
2012-10-13,63,56,48,52,46,27,96,76,38,29.94,29.76,29.66,10,8,0,21,12,26,0.00,7,Fog-Rain,157
2012-10-14,60,50,39,43,38,33,100,74,42,29.95,29.84,29.76,10,7,0,17,8,24,0.00,4,Fog,321
2012-10-15,68,50,33,41,34,29,85,57,30,29.98,29.87,29.67,10,10,10,16,7,20,0.00,0,,197
2012-10-16,75,63,51,45,43,40,72,54,31,29.65,29.48,29.34,10,10,10,13,6,,0.00,1,,143
2012-10-17,61,51,42,48,43,37,89,72,49,29.36,29.25,29.10,10,10,7,30,16,46,0.03,7,Rain,266
2012-10-18,48,44,39,46,43,38,100,92,86,29.42,29.29,29.18,10,5,2,20,14,30,0.23,8,Rain,312
2012-10-19,45,44,42,43,41,39,97,91,86,29.78,29.64,29.43,10,8,2,20,14,32,0.15,8,Rain,320
2012-10-20,54,48,41,45,41,39,93,84,69,29.83,29.78,29.73,10,10,10,15,7,,0.00,6,,177
2012-10-21,63,52,42,47,44,40,93,80,56,29.93,29.80,29.73,10,10,7,15,10,,0.00,0,,182
2012-10-22,59,52,45,51,45,41,93,76,62,29.96,29.90,29.84,10,10,8,14,8,22,0.00,5,,43
2012-10-23,63,58,55,61,56,52,100,91,82,29.79,29.71,29.66,8,4,0,15,10,,0.25,8,Fog-Rain-Thunderstorm,158
2012-10-24,57,50,42,54,46,39,94,86,77,29.89,29.85,29.81,10,9,7,17,10,23,0.01,7,Rain,332
2012-10-25,42,37,32,38,31,27,93,82,65,30.23,29.94,29.80,10,7,1,23,16,33,0.30,8,Rain-Snow,319
2012-10-26,41,36,33,26,24,21,73,63,47,30.43,30.38,30.27,10,10,10,17,12,23,0.00,7,,274
2012-10-27,42,32,24,26,23,20,84,69,45,30.40,30.36,30.31,10,10,10,10,7,,0.00,2,,207
2012-10-28,48,38,28,32,28,23,82,71,48,30.34,30.29,30.24,10,10,8,15,8,,0.00,5,Snow,148
2012-10-29,52,42,33,30,27,25,73,60,39,30.27,30.24,30.20,10,10,10,21,13,26,0.00,3,,135
2012-10-30,48,39,30,30,27,24,82,63,42,30.22,30.17,30.10,10,10,10,8,4,,0.00,6,,77
2012-10-31,55,44,33,31,27,21,76,56,32,30.11,30.03,29.95,10,10,10,6,2,,0.00,5,,170